createdAt,value
2022-09-01T00:13:58.021Z,2.60
2022-09-01T00:17:31.810Z,2.80
2022-09-01T00:21:05.741Z,2.60
2022-09-01T00:24:39.702Z,2.00
2022-09-01T00:38:04.962Z,2.70
2022-09-01T00:41:51.210Z,3.00
2022-09-01T00:45:25.471Z,2.50
2022-09-01T00:58:47.681Z,2.40
2022-09-01T01:02:21.292Z,2.20
2022-09-01T01:05:59.290Z,2.40
2022-09-01T01:15:58.200Z,2.50
2022-09-01T01:19:59.010Z,2.60
2022-09-01T01:23:39.493Z,2.60
2022-09-01T01:40:35.754Z,2.10
2022-09-01T01:44:12.431Z,2.10
2022-09-01T01:48:01.990Z,2.60
2022-09-01T02:01:29.605Z,2.40
2022-09-01T02:05:05.511Z,2.60
2022-09-01T02:08:41.642Z,2.80
2022-09-01T02:29:04.760Z,2.30
2022-09-01T02:32:38.183Z,2.70
2022-09-01T02:36:14.600Z,2.40
2022-09-01T02:39:49.071Z,2.50
2022-09-01T02:43:14.540Z,2.50
2022-09-01T02:46:49.041Z,2.70
2022-09-01T02:50:23.080Z,2.90
2022-09-01T03:07:14.256Z,3.00
2022-09-01T03:10:50.570Z,2.50
2022-09-01T03:14:26.928Z,2.30
2022-09-01T03:18:01.340Z,2.60
2022-09-01T03:35:23.150Z,2.40
2022-09-01T03:38:57.370Z,2.80
2022-09-01T03:42:31.510Z,2.60
2022-09-01T03:46:05.660Z,2.60
2022-09-01T03:49:40.970Z,3.00
2022-09-01T03:53:16.410Z,2.60
2022-09-01T04:10:22.980Z,2.80
2022-09-01T04:13:56.773Z,2.60
2022-09-01T04:17:46.878Z,2.80
2022-09-01T04:21:14.461Z,3.20
2022-09-01T04:27:41.033Z,3.10
2022-09-01T04:34:50.137Z,2.60
2022-09-01T04:38:23.801Z,2.80
2022-09-01T04:41:57.911Z,2.80
2022-09-01T04:55:25.246Z,2.90
2022-09-01T04:58:59.956Z,2.90
2022-09-01T05:23:02.375Z,2.40
2022-09-01T05:26:34.300Z,2.20
2022-09-01T05:30:08.518Z,2.60
2022-09-01T05:43:50.396Z,2.20
2022-09-01T05:47:21.549Z,2.10
2022-09-01T05:50:56.098Z,2.10
2022-09-01T05:54:28.860Z,2.00
2022-09-01T06:00:59.891Z,2.20
2022-09-01T06:04:33.440Z,2.30
2022-09-01T06:08:11.460Z,1.90
2022-09-01T06:21:44.561Z,2.30
2022-09-01T06:25:23.239Z,2.30
2022-09-01T06:29:00.651Z,2.20
2022-09-01T06:42:27.101Z,2.20
2022-09-01T06:46:03.007Z,2.10
2022-09-01T06:49:37.581Z,1.70
2022-09-01T07:10:29.448Z,2.20
2022-09-01T07:14:21.017Z,1.70
2022-09-01T07:17:57.031Z,2.10
2022-09-01T07:21:39.215Z,1.50
2022-09-01T07:25:18.221Z,1.60
2022-09-01T07:29:00.976Z,1.30
2022-09-01T07:54:37.879Z,1.30
2022-09-01T07:58:12.046Z,4.10
2022-09-01T08:01:45.920Z,3.00
2022-09-01T08:08:29.650Z,0.90
2022-09-01T08:12:03.711Z,3.40
2022-09-01T08:15:41.012Z,1.40
2022-09-01T08:19:34.760Z,1.60
2022-09-01T08:23:06.273Z,1.90
2022-09-01T08:26:40.621Z,1.10
2022-09-01T08:30:16.964Z,1.00
2022-09-01T08:33:52.652Z,0.90
2022-09-01T08:47:28.819Z,0.80
2022-09-01T08:51:17.122Z,2.40
2022-09-01T08:55:15.942Z,3.50
2022-09-01T08:58:50.630Z,1.00
2022-09-01T09:02:45.470Z,1.00
2022-09-01T09:06:28.266Z,1.10
2022-09-01T09:19:50.716Z,1.20
2022-09-01T09:23:31.628Z,1.90
2022-09-01T09:40:19.190Z,2.40
2022-09-01T09:43:59.743Z,1.60
2022-09-01T09:47:44.490Z,1.30
2022-09-01T09:51:23.761Z,0.50
2022-09-01T09:55:07.429Z,1.30
2022-09-01T09:58:41.992Z,1.10
2022-09-01T10:19:21.552Z,0.70
2022-09-01T10:22:53.556Z,0.60
2022-09-01T10:26:27.568Z,0.80
2022-09-01T10:30:20.317Z,0.70
2022-09-01T10:47:25.863Z,0.60
2022-09-01T10:51:38.269Z,0.50
2022-09-01T10:55:23.986Z,0.60
2022-09-01T11:03:42.091Z,0.60
2022-09-01T11:08:03.034Z,0.50
2022-09-01T11:21:28.544Z,0.50
2022-09-01T11:25:39.921Z,0.70
2022-09-01T11:33:43.466Z,0.70
2022-09-01T11:37:22.210Z,0.70
2022-09-01T11:41:08.649Z,0.40
2022-09-01T11:51:26.542Z,0.80
2022-09-01T11:55:01.032Z,0.50
2022-09-01T11:58:39.999Z,0.50
2022-09-01T12:02:23.574Z,0.50
2022-09-01T12:16:06.876Z,0.70
2022-09-01T12:19:39.000Z,0.50
2022-09-01T12:23:26.506Z,0.60
2022-09-01T12:27:05.483Z,0.50
2022-09-01T12:30:43.501Z,0.50
2022-09-01T12:44:35.451Z,0.40
2022-09-01T12:48:07.141Z,0.60
2022-09-01T12:51:37.995Z,0.30
2022-09-01T12:58:15.461Z,0.60
2022-09-01T13:01:51.030Z,0.50
2022-09-01T13:05:42.653Z,0.50
2022-09-01T13:09:22.320Z,0.40
2022-09-01T13:12:56.352Z,0.40
2022-09-01T13:16:30.332Z,0.40
2022-09-01T13:19:54.020Z,0.50
2022-09-01T13:23:27.766Z,0.60
2022-09-01T13:51:39.770Z,0.70
2022-09-01T13:55:16.490Z,0.50
2022-09-01T13:58:52.230Z,0.40
2022-09-01T14:29:32.641Z,1.40
2022-09-01T14:33:09.920Z,1.30
2022-09-01T14:36:45.998Z,0.90
2022-09-01T14:53:39.865Z,0.50
2022-09-01T14:57:37.798Z,0.50
2022-09-01T15:01:32.806Z,0.60
2022-09-01T15:14:58.761Z,0.60
2022-09-01T15:18:32.454Z,0.70
2022-09-01T15:22:07.973Z,0.70
2022-09-01T15:35:47.700Z,0.60
2022-09-01T15:39:18.403Z,0.50
2022-09-01T15:42:50.815Z,0.50
2022-09-01T15:53:24.601Z,0.70
2022-09-01T15:56:58.631Z,0.60
2022-09-01T16:00:33.396Z,0.50
2022-09-01T16:28:09.249Z,1.00
2022-09-01T16:31:45.131Z,1.00
2022-09-01T16:35:28.688Z,0.80
2022-09-01T16:42:08.161Z,0.70
2022-09-01T16:45:54.731Z,1.10
2022-09-01T16:49:35.011Z,0.70
2022-09-01T16:53:34.056Z,0.70
2022-09-01T17:13:51.781Z,0.70
2022-09-01T17:17:43.531Z,0.50
2022-09-01T17:21:22.693Z,0.70
2022-09-01T17:28:44.642Z,0.90
2022-09-01T17:32:35.161Z,0.60
2022-09-01T17:36:18.284Z,0.70
2022-09-01T17:40:01.573Z,1.30
2022-09-01T17:43:49.257Z,0.50
2022-09-01T17:57:24.589Z,0.70
2022-09-01T18:01:11.224Z,1.10
2022-09-01T18:05:01.800Z,0.70
2022-09-01T18:18:37.511Z,1.40
2022-09-01T18:22:23.219Z,1.30
2022-09-01T18:26:05.402Z,1.80
2022-09-01T18:43:31.869Z,2.10
2022-09-01T18:47:02.531Z,1.70
2022-09-01T18:50:43.745Z,2.00
2022-09-01T19:00:56.252Z,1.50
2022-09-01T19:04:40.105Z,1.90
2022-09-01T19:08:30.051Z,1.70
2022-09-01T19:12:19.402Z,1.40
2022-09-01T19:29:15.936Z,1.40
2022-09-01T19:32:50.631Z,1.60
2022-09-01T19:39:10.669Z,1.40
2022-09-01T19:42:51.591Z,1.70
2022-09-01T19:46:32.218Z,1.70
2022-09-01T20:03:19.534Z,1.70
2022-09-01T20:07:00.654Z,1.60
2022-09-01T20:10:56.587Z,1.30
2022-09-01T20:15:01.322Z,1.50
2022-09-01T20:18:39.572Z,1.70
2022-09-01T20:35:39.844Z,2.30
2022-09-01T20:39:35.470Z,1.40
2022-09-01T20:43:19.063Z,1.60
2022-09-01T21:00:28.958Z,1.40
2022-09-01T21:04:12.080Z,1.50
2022-09-01T21:08:08.901Z,1.50
2022-09-01T21:21:48.551Z,1.60
2022-09-01T21:25:22.386Z,1.60
2022-09-01T21:29:02.521Z,1.60
2022-09-01T21:42:22.850Z,1.70
2022-09-01T21:46:00.884Z,2.30
2022-09-01T21:49:35.534Z,1.70
2022-09-01T22:04:01.819Z,1.50
2022-09-01T22:07:35.609Z,1.90
2022-09-01T22:11:12.051Z,1.90
2022-09-01T22:24:37.120Z,1.30
2022-09-01T22:28:11.249Z,2.10
2022-09-01T22:31:39.800Z,1.40
2022-09-01T22:35:16.593Z,1.60
2022-09-01T22:52:22.148Z,1.70
2022-09-01T22:55:53.511Z,1.80
2022-09-01T22:59:24.792Z,1.70
2022-09-01T23:02:58.441Z,1.70
2022-09-01T23:16:16.050Z,1.80
2022-09-01T23:19:49.790Z,1.80
2022-09-01T23:23:23.580Z,1.50
2022-09-01T23:36:52.439Z,1.60
2022-09-01T23:40:25.903Z,1.90
2022-09-01T23:44:01.640Z,1.60
2022-09-01T23:47:36.321Z,1.60
2022-09-01T23:51:14.408Z,1.70
2022-09-01T23:54:49.350Z,1.90
2022-09-01T23:58:26.174Z,1.80
